Time;durP1;ratioP1;P1;durP2;ratioP2;P2;SDS_P1;SDS_P2;PMS_P1;PMS_P2;Temp;Humidity;BMP_temperature;BMP_pressure;BME280_temperature;BME280_humidity;BME280_pressure;Samples;Min_cycle;Max_cycle;Signal;HPM_P1;HPM_P2
2023/12/20 00:01:16;;;;;;;5.40;5.00;;;7.80;99.90;;;;;;5032359;28;20211;-55
2023/12/20 00:03:42;;;;;;;6.97;5.93;;;7.80;99.90;;;;;;5037130;28;20195;-55
2023/12/20 00:06:08;;;;;;;6.37;5.77;;;7.70;99.90;;;;;;5033740;28;20202;-54
2023/12/20 00:08:33;;;;;;;5.97;5.47;;;7.60;99.90;;;;;;5035236;28;21098;-54
2023/12/20 00:10:58;;;;;;;5.80;5.30;;;7.70;99.90;;;;;;5032781;28;20426;-54
2023/12/20 00:13:24;;;;;;;6.30;5.73;;;7.70;99.90;;;;;;5036500;28;20222;-54
2023/12/20 00:15:49;;;;;;;6.13;5.57;;;8.00;99.90;;;;;;5039350;28;21068;-53
2023/12/20 00:18:15;;;;;;;5.27;4.77;;;7.80;99.90;;;;;;5036276;28;20226;-56
2023/12/20 00:20:40;;;;;;;5.37;4.90;;;7.70;99.90;;;;;;5038015;28;20222;-52
2023/12/20 00:23:07;;;;;;;5.17;4.30;;;7.60;99.90;;;;;;5039958;28;20209;-56
2023/12/20 00:25:33;;;;;;;5.23;4.73;;;7.60;99.90;;;;;;5033984;28;20197;-55
2023/12/20 00:27:59;;;;;;;5.00;4.60;;;7.60;99.90;;;;;;5033735;28;20199;-60
2023/12/20 00:30:24;;;;;;;7.00;6.40;;;7.60;99.90;;;;;;5033663;28;20308;-61
2023/12/20 00:32:50;;;;;;;5.87;5.40;;;7.60;99.90;;;;;;5033177;28;20236;-63
2023/12/20 00:35:16;;;;;;;5.80;5.20;;;7.70;99.90;;;;;;5033421;28;20210;-62
2023/12/20 00:37:42;;;;;;;5.53;5.03;;;7.60;99.90;;;;;;5015253;28;20289;-61
2023/12/20 00:40:09;;;;;;;5.27;4.87;;;7.60;99.90;;;;;;5029496;28;20226;-57
2023/12/20 00:42:35;;;;;;;5.80;5.30;;;7.60;99.90;;;;;;5031168;28;20206;-56
2023/12/20 00:45:02;;;;;;;6.03;5.53;;;7.60;99.90;;;;;;5031241;28;20199;-54
2023/12/20 00:47:27;;;;;;;5.00;4.60;;;7.50;99.90;;;;;;5030405;28;20191;-56
2023/12/20 00:49:53;;;;;;;5.77;5.17;;;7.60;99.90;;;;;;5029898;28;20222;-56
2023/12/20 00:52:18;;;;;;;6.93;5.67;;;7.60;99.90;;;;;;5027617;28;20321;-53
2023/12/20 00:54:44;;;;;;;5.50;5.10;;;7.50;99.90;;;;;;5037417;28;20218;-56
2023/12/20 00:57:10;;;;;;;10.83;5.33;;;7.50;99.90;;;;;;5040725;28;20225;-56
2023/12/20 00:59:35;;;;;;;5.80;5.30;;;7.60;99.90;;;;;;5040790;28;20692;-54
2023/12/20 01:02:01;;;;;;;6.63;5.93;;;7.50;99.90;;;;;;5037474;28;20289;-54
2023/12/20 01:04:27;;;;;;;5.13;4.73;;;7.50;99.90;;;;;;5035901;28;20669;-63
2023/12/20 01:06:53;;;;;;;5.90;5.40;;;7.60;99.90;;;;;;5014654;28;20226;-55
2023/12/20 01:09:18;;;;;;;5.87;5.23;;;7.60;99.90;;;;;;5036229;28;20336;-61
2023/12/20 01:11:44;;;;;;;5.40;5.00;;;7.50;99.90;;;;;;5034369;28;20836;-53
2023/12/20 01:14:09;;;;;;;5.80;5.30;;;7.50;99.90;;;;;;5033129;28;20546;-59
2023/12/20 01:16:35;;;;;;;6.30;5.77;;;7.30;99.90;;;;;;5034793;28;20199;-54
2023/12/20 01:19:00;;;;;;;5.60;5.10;;;7.20;99.90;;;;;;5030932;28;20199;-53
2023/12/20 01:21:26;;;;;;;6.07;5.47;;;7.20;99.90;;;;;;5016617;28;20553;-53
2023/12/20 01:23:51;;;;;;;5.50;5.00;;;7.20;99.90;;;;;;5035352;28;20226;-54
2023/12/20 01:26:17;;;;;;;7.43;5.80;;;7.10;99.90;;;;;;5036890;28;20199;-53
2023/12/20 01:28:43;;;;;;;5.83;5.33;;;7.00;99.90;;;;;;5034015;28;20195;-54
2023/12/20 01:31:08;;;;;;;6.53;5.53;;;6.90;99.90;;;;;;5034385;28;21008;-56
2023/12/20 01:33:34;;;;;;;6.07;5.47;;;7.10;99.90;;;;;;5033332;28;20747;-53
2023/12/20 01:36:00;;;;;;;6.63;6.03;;;7.10;99.90;;;;;;5015113;28;20291;-53
2023/12/20 01:38:25;;;;;;;6.07;5.47;;;7.10;99.90;;;;;;5034434;28;20199;-54
2023/12/20 01:40:51;;;;;;;5.90;5.40;;;7.10;99.90;;;;;;5018520;28;20220;-53
2023/12/20 01:43:16;;;;;;;7.10;6.40;;;7.10;99.90;;;;;;5033511;28;20202;-53
2023/12/20 01:45:42;;;;;;;5.57;5.07;;;7.00;99.90;;;;;;5033259;28;20191;-54
2023/12/20 01:48:09;;;;;;;8.47;5.93;;;7.10;99.90;;;;;;5034514;28;20203;-55
2023/12/20 01:50:37;;;;;;;6.57;5.63;;;6.90;99.90;;;;;;5029933;28;20213;-54
2023/12/20 01:53:05;;;;;;;6.07;5.47;;;6.80;99.90;;;;;;5033326;28;20253;-52
2023/12/20 01:55:34;;;;;;;6.57;5.97;;;6.80;99.90;;;;;;5035886;28;20222;-52
2023/12/20 01:58:00;;;;;;;6.67;5.93;;;6.80;99.90;;;;;;5034807;28;20210;-52
2023/12/20 02:00:28;;;;;;;6.23;5.63;;;6.70;99.90;;;;;;5037260;28;20608;-52
2023/12/20 02:02:55;;;;;;;4.83;4.33;;;6.80;99.90;;;;;;5035100;28;20226;-52
2023/12/20 02:05:21;;;;;;;4.73;4.33;;;6.80;99.90;;;;;;5034654;28;20600;-52
2023/12/20 02:07:47;;;;;;;5.03;4.53;;;6.80;99.90;;;;;;5033890;28;20191;-53
2023/12/20 02:10:12;;;;;;;7.67;4.00;;;6.80;99.90;;;;;;5034995;28;20205;-53
2023/12/20 02:12:38;;;;;;;4.50;4.10;;;6.80;99.90;;;;;;5038389;28;20309;-53
2023/12/20 02:15:05;;;;;;;6.40;4.37;;;6.80;99.90;;;;;;5036388;28;20754;-53
2023/12/20 02:17:31;;;;;;;4.93;4.50;;;6.90;99.90;;;;;;5033116;28;20293;-53
2023/12/20 02:19:57;;;;;;;4.70;4.30;;;6.90;99.90;;;;;;5034428;28;20268;-53
2023/12/20 02:22:22;;;;;;;4.93;4.47;;;7.00;99.90;;;;;;5033520;28;20199;-55
2023/12/20 02:24:48;;;;;;;5.60;5.10;;;7.10;99.90;;;;;;5033399;28;20779;-53
2023/12/20 02:27:15;;;;;;;5.37;4.87;;;7.00;99.90;;;;;;5033253;28;20199;-52
2023/12/20 02:29:40;;;;;;;6.33;5.70;;;7.30;99.90;;;;;;5037787;28;20703;-53
2023/12/20 02:32:06;;;;;;;5.87;5.30;;;7.20;99.90;;;;;;5036013;28;20751;-53
2023/12/20 02:34:31;;;;;;;5.90;4.70;;;7.10;99.90;;;;;;5033694;28;20252;-62
2023/12/20 02:36:57;;;;;;;5.27;4.77;;;7.10;99.90;;;;;;5018529;28;20194;-60
2023/12/20 02:39:22;;;;;;;5.83;5.33;;;7.00;99.90;;;;;;5033419;28;20254;-61
2023/12/20 02:41:48;;;;;;;6.27;5.70;;;7.00;99.90;;;;;;5036760;28;20217;-53
2023/12/20 02:44:14;;;;;;;9.30;6.40;;;7.00;99.90;;;;;;5033251;28;20233;-53
2023/12/20 02:46:39;;;;;;;6.77;6.17;;;6.90;99.90;;;;;;5038762;28;20206;-59
2023/12/20 02:49:06;;;;;;;6.77;6.07;;;6.90;99.90;;;;;;5032231;28;20207;-53
2023/12/20 02:51:31;;;;;;;7.10;6.47;;;6.90;99.90;;;;;;5029746;28;20210;-60
2023/12/20 02:53:57;;;;;;;7.70;6.53;;;6.90;99.90;;;;;;5035877;28;20576;-62
2023/12/20 02:56:22;;;;;;;8.70;7.80;;;7.10;99.90;;;;;;5032653;28;20241;-62
2023/12/20 02:58:48;;;;;;;7.83;7.03;;;7.00;99.90;;;;;;5032936;28;20234;-63
2023/12/20 03:01:14;;;;;;;6.93;6.23;;;7.30;99.90;;;;;;5016703;28;20288;-54
2023/12/20 03:03:39;;;;;;;6.30;5.07;;;7.30;99.90;;;;;;5032926;28;20198;-54
2023/12/20 03:06:05;;;;;;;5.50;4.93;;;7.30;99.90;;;;;;5036231;28;21113;-54
2023/12/20 03:08:30;;;;;;;6.60;5.47;;;7.30;99.90;;;;;;5040857;28;20249;-54
2023/12/20 03:10:56;;;;;;;5.87;5.03;;;7.10;99.90;;;;;;5032643;28;20246;-54
2023/12/20 03:13:21;;;;;;;6.30;5.33;;;7.20;99.90;;;;;;5031470;28;20194;-61
2023/12/20 03:15:47;;;;;;;7.73;4.77;;;7.40;99.90;;;;;;5033197;28;20325;-63
2023/12/20 03:18:12;;;;;;;5.20;3.60;;;7.30;99.90;;;;;;5033631;28;20676;-55
2023/12/20 03:20:38;;;;;;;4.47;3.87;;;7.20;99.90;;;;;;5032988;28;20203;-55
2023/12/20 03:23:03;;;;;;;4.33;3.27;;;7.10;99.90;;;;;;5036783;28;20260;-55
2023/12/20 03:25:29;;;;;;;4.27;3.53;;;7.10;99.90;;;;;;5030675;28;20206;-54
2023/12/20 03:27:55;;;;;;;3.30;3.00;;;7.00;99.90;;;;;;5031666;28;20807;-54
2023/12/20 03:30:20;;;;;;;4.37;2.83;;;7.00;99.90;;;;;;5035354;28;20199;-55
2023/12/20 03:32:46;;;;;;;5.47;2.70;;;7.00;99.90;;;;;;5034082;28;20229;-55
2023/12/20 03:35:12;;;;;;;6.30;2.53;;;7.00;99.90;;;;;;5037063;28;20368;-54
2023/12/20 03:37:37;;;;;;;4.93;2.70;;;6.90;99.90;;;;;;5036241;28;20826;-55
2023/12/20 03:40:03;;;;;;;6.43;2.40;;;6.90;99.90;;;;;;5037530;28;21082;-55
2023/12/20 03:42:29;;;;;;;3.83;2.23;;;6.90;99.90;;;;;;5032956;28;20202;-55
2023/12/20 03:44:54;;;;;;;3.23;2.50;;;6.80;99.90;;;;;;5038955;28;20272;-59
2023/12/20 03:47:20;;;;;;;6.70;2.80;;;6.80;99.90;;;;;;5037193;28;20290;-55
2023/12/20 03:49:45;;;;;;;7.63;2.30;;;6.80;99.90;;;;;;5027468;28;20218;-55
2023/12/20 03:52:11;;;;;;;3.63;1.83;;;6.80;99.90;;;;;;5035257;28;20210;-54
2023/12/20 03:54:37;;;;;;;2.47;2.00;;;6.70;99.90;;;;;;5035285;28;20211;-55
2023/12/20 03:57:03;;;;;;;4.87;2.13;;;6.70;99.90;;;;;;5040356;28;20759;-54
2023/12/20 03:59:28;;;;;;;9.90;2.37;;;6.70;99.90;;;;;;5030673;28;20226;-55
2023/12/20 04:01:54;;;;;;;4.90;2.43;;;6.70;99.90;;;;;;5031967;28;20234;-54
2023/12/20 04:04:19;;;;;;;12.97;3.00;;;6.70;99.90;;;;;;5037132;28;20210;-54
2023/12/20 04:06:45;;;;;;;7.13;1.77;;;6.70;99.90;;;;;;5032233;28;21111;-54
2023/12/20 04:09:10;;;;;;;11.57;2.37;;;6.70;99.90;;;;;;5032480;28;20328;-55
2023/12/20 04:11:36;;;;;;;5.60;1.60;;;6.60;99.90;;;;;;5035443;28;20924;-55
2023/12/20 04:14:02;;;;;;;4.60;1.47;;;6.60;99.90;;;;;;5035349;28;20230;-54
2023/12/20 04:16:27;;;;;;;4.10;1.87;;;6.60;99.90;;;;;;5038623;28;21122;-54
2023/12/20 04:18:53;;;;;;;8.17;2.67;;;6.50;99.90;;;;;;5039855;28;20209;-54
2023/12/20 04:21:18;;;;;;;4.57;1.97;;;6.50;99.90;;;;;;5034359;28;20222;-55
2023/12/20 04:23:44;;;;;;;7.77;2.23;;;6.50;99.90;;;;;;5031804;28;20505;-55
2023/12/20 04:26:10;;;;;;;9.07;2.53;;;6.50;99.90;;;;;;5032579;28;20202;-54
2023/12/20 04:28:35;;;;;;;12.87;3.07;;;6.50;99.90;;;;;;5038497;28;20206;-54
2023/12/20 04:31:01;;;;;;;5.93;2.93;;;6.50;99.90;;;;;;5036894;28;20913;-55
2023/12/20 04:33:26;;;;;;;5.77;2.03;;;6.40;99.90;;;;;;5032416;28;20236;-54
2023/12/20 04:35:52;;;;;;;7.93;2.77;;;6.40;99.90;;;;;;5030024;28;20750;-55
2023/12/20 04:38:18;;;;;;;7.13;2.40;;;6.40;99.90;;;;;;5031091;28;20199;-54
2023/12/20 04:40:43;;;;;;;4.33;2.30;;;6.30;99.90;;;;;;5031372;28;20233;-54
2023/12/20 04:43:09;;;;;;;5.40;2.37;;;6.30;99.90;;;;;;5030854;28;20297;-54
2023/12/20 04:45:35;;;;;;;7.37;2.30;;;6.30;99.90;;;;;;5031223;28;20191;-54
2023/12/20 04:48:02;;;;;;;11.17;2.80;;;6.40;99.90;;;;;;5035127;28;20279;-55
2023/12/20 04:50:27;;;;;;;9.77;2.30;;;6.30;99.90;;;;;;5028933;28;20198;-55
2023/12/20 04:52:53;;;;;;;4.10;2.27;;;6.30;99.90;;;;;;5031145;28;20767;-55
2023/12/20 04:55:18;;;;;;;9.87;2.10;;;6.20;99.90;;;;;;5037163;28;20241;-55
2023/12/20 04:57:44;;;;;;;9.17;3.10;;;6.20;99.90;;;;;;5036842;28;20236;-55
2023/12/20 05:00:10;;;;;;;8.03;2.13;;;6.10;99.90;;;;;;5020809;28;20218;-55
2023/12/20 05:02:36;;;;;;;8.73;2.77;;;6.10;99.90;;;;;;5035274;28;20215;-55
2023/12/20 05:05:02;;;;;;;6.33;2.43;;;6.10;99.90;;;;;;5031708;28;20198;-55
2023/12/20 05:07:27;;;;;;;7.07;2.20;;;6.10;99.90;;;;;;5037188;28;20207;-57
2023/12/20 05:09:53;;;;;;;7.03;2.77;;;6.10;99.90;;;;;;5017531;28;20203;-54
2023/12/20 05:12:19;;;;;;;7.10;2.30;;;6.10;99.90;;;;;;5031356;28;20199;-54
2023/12/20 05:14:45;;;;;;;10.07;3.07;;;6.10;99.90;;;;;;5030332;28;20207;-54
2023/12/20 05:17:11;;;;;;;5.60;2.57;;;6.00;99.90;;;;;;5035129;28;20198;-54
2023/12/20 05:19:36;;;;;;;10.43;2.50;;;6.00;99.90;;;;;;5017689;28;20221;-54
2023/12/20 05:22:02;;;;;;;3.23;2.03;;;6.10;99.90;;;;;;5034580;28;20947;-55
2023/12/20 05:24:28;;;;;;;7.73;2.20;;;6.00;99.90;;;;;;5030935;28;20206;-54
2023/12/20 05:26:53;;;;;;;5.90;2.50;;;5.90;99.90;;;;;;5031986;28;20213;-54
2023/12/20 05:29:19;;;;;;;5.07;1.70;;;5.90;99.90;;;;;;5035486;28;20198;-55
2023/12/20 05:31:44;;;;;;;6.47;1.93;;;5.90;99.90;;;;;;5030727;28;20202;-55
2023/12/20 05:34:10;;;;;;;2.50;1.27;;;5.90;99.90;;;;;;5035340;28;20251;-55
2023/12/20 05:36:36;;;;;;;9.73;1.70;;;6.00;99.90;;;;;;5016646;28;20202;-54
2023/12/20 05:39:03;;;;;;;8.40;2.53;;;5.90;99.90;;;;;;5033415;28;20344;-54
2023/12/20 05:41:28;;;;;;;4.87;2.10;;;5.90;99.90;;;;;;5030463;28;20305;-54
2023/12/20 05:43:54;;;;;;;4.60;1.50;;;5.80;99.90;;;;;;5039811;28;20888;-54
2023/12/20 05:46:21;;;;;;;11.93;2.20;;;5.70;99.90;;;;;;5034417;28;20198;-54
2023/12/20 05:48:46;;;;;;;6.47;2.53;;;5.70;99.90;;;;;;5034104;28;20191;-54
2023/12/20 05:51:12;;;;;;;6.00;1.47;;;5.80;99.90;;;;;;5032705;28;20195;-54
2023/12/20 05:53:38;;;;;;;5.27;1.90;;;5.90;99.90;;;;;;5039137;28;20233;-53
2023/12/20 05:56:04;;;;;;;7.67;2.43;;;6.00;99.90;;;;;;5034697;28;20253;-54
2023/12/20 05:58:29;;;;;;;5.13;2.03;;;6.00;99.90;;;;;;5032129;28;20210;-54
2023/12/20 06:00:55;;;;;;;6.23;1.93;;;5.90;99.90;;;;;;5037759;28;20219;-54
2023/12/20 06:03:20;;;;;;;9.03;1.67;;;5.90;99.90;;;;;;5034246;28;20660;-54
2023/12/20 06:05:46;;;;;;;9.83;1.90;;;5.80;99.90;;;;;;5035058;28;20668;-53
2023/12/20 06:08:12;;;;;;;4.03;1.70;;;5.90;99.90;;;;;;5036644;28;20207;-54
2023/12/20 06:10:37;;;;;;;9.00;2.43;;;5.90;99.90;;;;;;5035331;28;20198;-54
2023/12/20 06:13:04;;;;;;;8.00;2.13;;;6.00;99.90;;;;;;5033971;28;20289;-55
2023/12/20 06:15:30;;;;;;;3.03;1.67;;;5.90;99.90;;;;;;5036097;28;20768;-54
2023/12/20 06:17:55;;;;;;;6.23;1.87;;;5.80;99.90;;;;;;5037374;28;20199;-68
2023/12/20 06:20:21;;;;;;;4.50;2.00;;;5.80;99.90;;;;;;5035323;28;20210;-69
2023/12/20 06:22:46;;;;;;;4.53;1.80;;;5.70;99.90;;;;;;5037317;28;20191;-66
2023/12/20 06:25:12;;;;;;;7.87;1.87;;;5.80;99.90;;;;;;5037353;28;20202;-65
2023/12/20 06:27:38;;;;;;;5.47;1.47;;;5.80;99.90;;;;;;5035853;28;20203;-55
2023/12/20 06:30:04;;;;;;;3.97;2.00;;;5.70;99.90;;;;;;5040899;28;20198;-55
2023/12/20 06:32:30;;;;;;;7.23;2.23;;;5.70;99.90;;;;;;5038199;28;20190;-55
2023/12/20 06:34:55;;;;;;;3.63;2.07;;;5.80;99.90;;;;;;5036957;28;20199;-55
2023/12/20 06:37:21;;;;;;;5.47;2.07;;;5.70;99.90;;;;;;5032790;28;20292;-56
2023/12/20 06:39:46;;;;;;;4.07;2.50;;;5.70;99.90;;;;;;5033674;28;20219;-55
2023/12/20 06:42:12;;;;;;;6.60;2.83;;;5.80;99.90;;;;;;5014870;28;20280;-65
2023/12/20 06:44:38;;;;;;;4.87;2.10;;;5.90;99.90;;;;;;5032827;28;20314;-56
2023/12/20 06:47:04;;;;;;;9.07;2.40;;;5.80;99.90;;;;;;5032878;28;20306;-57
2023/12/20 06:49:30;;;;;;;4.90;2.30;;;5.60;99.90;;;;;;5031323;28;20260;-55
2023/12/20 06:51:55;;;;;;;6.37;2.90;;;5.50;99.90;;;;;;5031458;28;20195;-59
2023/12/20 06:54:21;;;;;;;7.23;2.00;;;5.50;99.90;;;;;;5030944;28;20553;-55
2023/12/20 06:56:46;;;;;;;7.90;3.00;;;5.60;99.90;;;;;;5031792;28;20195;-55
2023/12/20 06:59:12;;;;;;;6.40;2.10;;;5.60;99.90;;;;;;5032786;28;20735;-55
2023/12/20 07:01:37;;;;;;;4.20;2.33;;;5.60;99.90;;;;;;5036593;28;20198;-55
2023/12/20 07:04:03;;;;;;;5.87;2.43;;;5.60;99.90;;;;;;5035631;28;20207;-54
2023/12/20 07:06:29;;;;;;;2.93;1.83;;;5.60;99.90;;;;;;5037842;28;20616;-55
2023/12/20 07:08:54;;;;;;;6.17;2.83;;;5.70;99.90;;;;;;5033176;28;20237;-55
2023/12/20 07:11:20;;;;;;;5.77;2.40;;;5.70;99.90;;;;;;5033539;28;20278;-54
2023/12/20 07:13:45;;;;;;;6.97;3.03;;;5.60;99.90;;;;;;5035539;28;20198;-55
2023/12/20 07:16:11;;;;;;;9.97;2.27;;;5.60;99.90;;;;;;5036506;28;20202;-56
2023/12/20 07:18:36;;;;;;;4.27;1.87;;;5.70;99.90;;;;;;5014139;28;20206;-54
2023/12/20 07:21:02;;;;;;;4.40;1.73;;;5.70;99.90;;;;;;5034390;28;20221;-55
2023/12/20 07:23:28;;;;;;;7.13;2.17;;;5.70;99.90;;;;;;5035355;28;20755;-55
2023/12/20 07:25:53;;;;;;;5.00;1.90;;;5.90;99.90;;;;;;5037465;28;20285;-56
2023/12/20 07:28:19;;;;;;;3.20;1.93;;;5.90;99.90;;;;;;5033841;28;20206;-56
2023/12/20 07:30:44;;;;;;;12.23;3.33;;;5.80;99.90;;;;;;5037140;28;20199;-55
2023/12/20 07:33:12;;;;;;;13.07;2.40;;;5.80;99.90;;;;;;5037527;28;20768;-54
2023/12/20 07:35:37;;;;;;;8.97;2.10;;;5.80;99.90;;;;;;5026566;28;20248;-54
2023/12/20 07:38:03;;;;;;;4.77;1.90;;;5.80;99.90;;;;;;5021170;28;20203;-54
2023/12/20 07:40:29;;;;;;;9.63;2.00;;;5.90;99.90;;;;;;5035084;28;20203;-54
2023/12/20 07:42:54;;;;;;;8.97;2.70;;;5.90;99.90;;;;;;5032039;28;20278;-54
2023/12/20 07:45:20;;;;;;;4.83;2.73;;;6.00;99.90;;;;;;5033470;28;20798;-54
2023/12/20 07:47:45;;;;;;;6.33;1.70;;;5.80;99.90;;;;;;5037492;28;20209;-54
2023/12/20 07:50:11;;;;;;;9.53;2.80;;;5.90;99.90;;;;;;5033398;28;20225;-53
2023/12/20 07:52:37;;;;;;;7.33;1.80;;;5.90;99.90;;;;;;5036218;28;20202;-53
2023/12/20 07:55:02;;;;;;;8.43;1.63;;;5.80;99.90;;;;;;5032007;28;20218;-53
2023/12/20 07:57:31;;;;;;;5.10;1.70;;;5.80;99.90;;;;;;5033638;28;20684;-53
2023/12/20 07:59:56;;;;;;;7.47;2.07;;;6.00;99.90;;;;;;5034072;28;20218;-53
2023/12/20 08:02:22;;;;;;;3.70;1.70;;;5.90;99.90;;;;;;5035666;28;20198;-55
2023/12/20 08:04:47;;;;;;;6.93;2.10;;;5.90;99.90;;;;;;5035050;28;20252;-54
2023/12/20 08:07:13;;;;;;;6.50;2.73;;;5.90;99.90;;;;;;5018021;28;20281;-55
2023/12/20 08:09:38;;;;;;;5.87;2.50;;;6.00;99.90;;;;;;5036133;28;20199;-55
2023/12/20 08:12:04;;;;;;;3.13;1.63;;;6.00;99.90;;;;;;5031844;28;20202;-54
2023/12/20 08:14:30;;;;;;;6.17;2.60;;;6.00;99.90;;;;;;5013437;28;20202;-54
2023/12/20 08:16:55;;;;;;;7.23;2.13;;;5.90;99.90;;;;;;5031426;28;20827;-54
2023/12/20 08:19:20;;;;;;;11.80;2.30;;;5.90;99.90;;;;;;5011969;28;20207;-54
2023/12/20 08:21:46;;;;;;;11.17;1.90;;;5.90;99.90;;;;;;5035745;28;20561;-54
2023/12/20 08:24:12;;;;;;;4.07;1.63;;;5.90;99.90;;;;;;5014966;28;20203;-54
2023/12/20 08:26:37;;;;;;;11.63;2.37;;;5.80;99.90;;;;;;5030825;28;20575;-54
2023/12/20 08:29:03;;;;;;;8.67;2.40;;;5.90;99.90;;;;;;5036885;28;20696;-54
2023/12/20 08:31:29;;;;;;;8.93;1.90;;;5.90;99.90;;;;;;5037967;28;20199;-54
2023/12/20 08:33:54;;;;;;;14.97;2.27;;;6.00;99.90;;;;;;5031412;28;20216;-54
2023/12/20 08:36:24;;;;;;;7.13;2.30;;;6.00;99.90;;;;;;5019481;28;20202;-54
2023/12/20 08:38:50;;;;;;;5.67;2.10;;;6.10;99.90;;;;;;5033590;28;20186;-54
2023/12/20 08:41:17;;;;;;;7.03;2.07;;;6.00;99.90;;;;;;5016820;28;20210;-54
2023/12/20 08:43:42;;;;;;;8.23;2.20;;;5.90;99.90;;;;;;5038027;28;20244;-54
2023/12/20 08:46:11;;;;;;;9.10;2.40;;;6.10;99.90;;;;;;5038449;28;20214;-54
2023/12/20 08:48:37;;;;;;;11.87;2.10;;;6.10;99.90;;;;;;5033481;28;20222;-54
2023/12/20 08:51:03;;;;;;;7.90;2.37;;;6.20;99.90;;;;;;5032361;28;21070;-55
2023/12/20 08:53:29;;;;;;;6.20;2.03;;;6.10;99.90;;;;;;5034626;28;20293;-59
2023/12/20 08:55:54;;;;;;;10.80;2.20;;;6.20;99.90;;;;;;5012888;28;20317;-55
2023/12/20 08:58:20;;;;;;;3.70;2.03;;;6.20;99.90;;;;;;5029066;28;20738;-54
2023/12/20 09:00:45;;;;;;;8.20;1.63;;;6.20;99.90;;;;;;5030044;28;20521;-57
2023/12/20 09:03:11;;;;;;;5.80;1.67;;;6.30;99.90;;;;;;5031106;28;20229;-55
2023/12/20 09:05:36;;;;;;;4.33;1.70;;;6.20;99.90;;;;;;5031744;28;20206;-54
2023/12/20 09:08:02;;;;;;;8.47;1.90;;;6.30;99.90;;;;;;5030740;28;20223;-57
2023/12/20 09:10:28;;;;;;;4.10;1.77;;;6.40;99.90;;;;;;5030697;28;20278;-54
2023/12/20 09:12:56;;;;;;;2.47;2.27;;;6.50;99.90;;;;;;5029810;28;20286;-54
2023/12/20 09:15:25;;;;;;;9.80;3.80;;;6.50;99.90;;;;;;5029978;28;20187;-54
2023/12/20 09:17:51;;;;;;;10.87;2.63;;;6.50;99.90;;;;;;5033713;28;21194;-54
2023/12/20 09:20:17;;;;;;;7.53;2.13;;;6.50;99.90;;;;;;5034692;28;20289;-55
2023/12/20 09:22:42;;;;;;;8.40;2.13;;;6.40;99.90;;;;;;5033533;28;20221;-54
2023/12/20 09:25:09;;;;;;;10.57;2.20;;;6.40;99.90;;;;;;5034961;28;20268;-64
2023/12/20 09:27:34;;;;;;;7.10;2.07;;;6.40;99.90;;;;;;5023886;28;20309;-64
2023/12/20 09:30:00;;;;;;;10.30;2.27;;;6.50;99.90;;;;;;5038611;28;20222;-58
2023/12/20 09:32:25;;;;;;;3.10;1.60;;;6.40;99.90;;;;;;5034012;28;20228;-65
2023/12/20 09:34:51;;;;;;;11.87;2.50;;;6.30;99.90;;;;;;5034179;28;20203;-56
2023/12/20 09:37:16;;;;;;;7.00;2.23;;;6.50;99.90;;;;;;5034827;28;20268;-54
2023/12/20 09:39:42;;;;;;;6.30;2.53;;;6.50;99.90;;;;;;5036598;28;20599;-54
2023/12/20 09:42:07;;;;;;;28.00;4.37;;;6.70;99.90;;;;;;5034278;28;20266;-62
2023/12/20 09:44:36;;;;;;;6.63;1.80;;;6.80;99.90;;;;;;5034537;28;20187;-63
2023/12/20 09:47:03;;;;;;;5.23;1.50;;;7.20;99.90;;;;;;5034754;28;20284;-62
2023/12/20 09:49:30;;;;;;;6.97;2.33;;;7.40;99.90;;;;;;5036230;28;20198;-59
2023/12/20 09:51:56;;;;;;;6.53;1.97;;;7.60;99.90;;;;;;5039264;28;20214;-55
2023/12/20 09:54:22;;;;;;;6.10;2.00;;;7.50;99.90;;;;;;5033636;28;20217;-61
2023/12/20 09:56:48;;;;;;;3.73;1.53;;;7.30;99.90;;;;;;5034831;28;20214;-60
2023/12/20 09:59:14;;;;;;;4.17;2.10;;;7.20;99.90;;;;;;5035538;28;20207;-53
2023/12/20 10:01:41;;;;;;;6.37;2.70;;;7.30;99.90;;;;;;5035507;28;20264;-55
2023/12/20 10:04:09;;;;;;;9.13;2.30;;;7.40;99.90;;;;;;5036399;28;20203;-55
2023/12/20 10:06:47;;;;;;;6.30;2.23;;;7.30;99.90;;;;;;5041744;28;20675;-55
2023/12/20 10:09:13;;;;;;;3.50;1.40;;;7.20;99.90;;;;;;5037851;28;20203;-54
2023/12/20 10:11:39;;;;;;;10.27;2.57;;;7.20;99.90;;;;;;5034327;28;20288;-54
2023/12/20 10:14:06;;;;;;;11.93;2.50;;;7.20;99.90;;;;;;5042233;28;20206;-54
2023/12/20 10:16:32;;;;;;;3.23;2.23;;;7.10;99.90;;;;;;5043265;28;20198;-62
2023/12/20 10:18:59;;;;;;;5.00;1.87;;;7.20;99.90;;;;;;5035700;28;20215;-61
2023/12/20 10:21:26;;;;;;;4.40;1.37;;;7.20;99.90;;;;;;5015650;28;20949;-62
2023/12/20 10:23:56;;;;;;;7.47;2.27;;;7.20;99.90;;;;;;5034048;28;20209;-62
2023/12/20 10:26:22;;;;;;;8.83;2.00;;;7.40;99.90;;;;;;5032184;28;20530;-56
2023/12/20 10:28:52;;;;;;;6.33;1.77;;;7.50;99.90;;;;;;5032545;28;20329;-56
2023/12/20 10:31:32;;;;;;;7.63;2.07;;;7.50;99.90;;;;;;5032827;28;20217;-55
2023/12/20 10:33:58;;;;;;;4.60;2.03;;;7.40;99.90;;;;;;5032962;28;20285;-56
2023/12/20 10:36:29;;;;;;;6.90;2.50;;;7.30;99.90;;;;;;5031951;28;20594;-54
2023/12/20 10:38:57;;;;;;;8.27;2.77;;;7.30;99.90;;;;;;5032481;28;20207;-56
2023/12/20 10:41:31;;;;;;;7.37;2.07;;;7.30;99.90;;;;;;5032056;28;20214;-54
2023/12/20 10:44:07;;;;;;;6.93;2.17;;;7.40;99.90;;;;;;5032526;28;20213;-56
2023/12/20 10:46:33;;;;;;;9.00;2.63;;;7.40;99.90;;;;;;5033566;28;20206;-54
2023/12/20 10:49:01;;;;;;;13.47;2.53;;;7.40;99.90;;;;;;5032469;28;20642;-56
2023/12/20 10:51:29;;;;;;;7.37;2.50;;;7.50;99.90;;;;;;5028546;28;20214;-57
2023/12/20 10:53:56;;;;;;;3.67;1.70;;;7.40;99.90;;;;;;5032597;28;20675;-59
2023/12/20 10:56:23;;;;;;;4.63;2.37;;;7.60;99.90;;;;;;5027589;28;20219;-54
2023/12/20 10:58:49;;;;;;;6.47;2.20;;;7.40;99.90;;;;;;5033268;28;20282;-55
2023/12/20 11:01:17;;;;;;;8.90;2.67;;;7.60;99.90;;;;;;5034510;28;20665;-55
2023/12/20 11:03:47;;;;;;;6.90;2.27;;;7.50;99.90;;;;;;5036275;28;20191;-55
2023/12/20 11:06:24;;;;;;;6.77;2.17;;;7.30;99.90;;;;;;5032396;28;20199;-55
2023/12/20 11:08:55;;;;;;;12.87;2.50;;;7.20;99.90;;;;;;5031840;28;20182;-56
2023/12/20 11:11:43;;;;;;;13.63;2.70;;;7.30;99.90;;;;;;5034716;28;20582;-64
2023/12/20 11:14:20;;;;;;;8.87;2.50;;;7.20;99.90;;;;;;5033820;28;20187;-59
2023/12/20 11:16:45;;;;;;;10.63;2.93;;;7.40;99.90;;;;;;5032212;28;20225;-60
2023/12/20 11:19:13;;;;;;;6.03;2.00;;;7.30;99.90;;;;;;5034590;28;20313;-55
2023/12/20 11:21:39;;;;;;;9.40;2.33;;;7.30;99.90;;;;;;5036202;28;20225;-55
2023/12/20 11:24:05;;;;;;;2.90;1.53;;;7.30;99.90;;;;;;5039138;28;20682;-58
2023/12/20 11:26:31;;;;;;;6.50;2.00;;;7.30;99.90;;;;;;5038555;28;20206;-54
2023/12/20 11:29:31;;;;;;;8.17;2.80;;;7.20;99.90;;;;;;5037211;28;20198;-60
2023/12/20 11:31:58;;;;;;;6.60;2.83;;;7.10;99.90;;;;;;5033928;28;20201;-63
2023/12/20 11:34:28;;;;;;;7.73;2.30;;;7.00;99.90;;;;;;5035469;28;20220;-61
2023/12/20 11:37:00;;;;;;;5.40;2.10;;;7.00;99.90;;;;;;5030515;28;20961;-61
2023/12/20 11:39:28;;;;;;;6.47;2.90;;;7.20;99.90;;;;;;5033113;28;20237;-57
2023/12/20 11:41:56;;;;;;;6.83;2.57;;;7.40;99.90;;;;;;5013314;28;20203;-57
2023/12/20 11:44:21;;;;;;;10.87;2.90;;;7.40;99.90;;;;;;5032874;28;20220;-62
2023/12/20 11:46:47;;;;;;;3.33;1.80;;;7.20;99.90;;;;;;5031779;28;20587;-60
2023/12/20 11:49:12;;;;;;;6.37;2.93;;;7.40;99.90;;;;;;5036004;28;20547;-55
2023/12/20 11:51:42;;;;;;;5.90;1.80;;;7.20;99.90;;;;;;5027736;28;20203;-56
2023/12/20 11:54:08;;;;;;;13.27;3.20;;;7.00;99.90;;;;;;5031191;28;20646;-57
2023/12/20 11:56:35;;;;;;;5.20;2.37;;;7.10;99.90;;;;;;5030066;28;20233;-57
2023/12/20 11:59:01;;;;;;;10.27;2.60;;;6.90;99.90;;;;;;5031988;28;20198;-56
2023/12/20 12:01:26;;;;;;;5.10;2.17;;;7.00;99.90;;;;;;5031996;28;20723;-57
2023/12/20 12:04:06;;;;;;;7.20;2.30;;;7.00;99.90;;;;;;5034915;28;20209;-56
2023/12/20 12:06:32;;;;;;;5.70;2.40;;;7.00;99.90;;;;;;5033815;28;20257;-56
2023/12/20 12:08:57;;;;;;;8.90;2.30;;;7.00;99.90;;;;;;5016694;28;20202;-57
2023/12/20 12:11:23;;;;;;;5.53;2.03;;;7.10;99.90;;;;;;5034570;28;20191;-56
2023/12/20 12:13:49;;;;;;;6.30;2.07;;;7.10;99.90;;;;;;5011888;28;20229;-59
2023/12/20 12:16:21;;;;;;;7.30;2.20;;;7.20;99.90;;;;;;5034466;28;20212;-54
2023/12/20 12:18:54;;;;;;;7.33;2.27;;;7.30;99.90;;;;;;5037433;28;20738;-57
2023/12/20 12:21:20;;;;;;;6.73;2.30;;;7.30;99.90;;;;;;5033549;28;20925;-56
2023/12/20 12:23:46;;;;;;;8.00;2.10;;;7.20;99.90;;;;;;5034539;28;20382;-56
2023/12/20 12:26:11;;;;;;;4.87;2.23;;;7.20;99.90;;;;;;5021128;28;20263;-60
2023/12/20 12:28:40;;;;;;;3.57;1.93;;;7.20;99.90;;;;;;5030334;28;20202;-56
2023/12/20 12:31:05;;;;;;;5.57;1.93;;;7.10;99.90;;;;;;5006769;28;21032;-63
2023/12/20 12:33:31;;;;;;;8.27;2.10;;;7.00;99.90;;;;;;5014970;28;20194;-55
2023/12/20 12:35:57;;;;;;;6.10;2.90;;;6.90;99.90;;;;;;5034600;28;20210;-55
2023/12/20 12:38:23;;;;;;;5.80;2.43;;;6.70;99.90;;;;;;5031439;28;20285;-55
2023/12/20 12:40:50;;;;;;;8.30;2.93;;;6.70;99.90;;;;;;5031183;28;20590;-55
2023/12/20 12:43:15;;;;;;;6.70;2.43;;;6.50;99.90;;;;;;5028813;28;20731;-55
2023/12/20 12:45:41;;;;;;;6.43;3.10;;;6.40;99.90;;;;;;5031861;28;20203;-57
2023/12/20 12:48:07;;;;;;;3.73;2.13;;;6.40;99.90;;;;;;5012926;28;20953;-57
2023/12/20 12:50:32;;;;;;;10.57;2.80;;;6.40;99.90;;;;;;5009522;28;20195;-56